Orbital elements of FENGYUN 1C DEB
| Launched | 9 May 1999 |
| Flight ended | – |
| Launch site | Taiyuan Space Center, PRC |
| Owner | People's Republic of China |
| NORAD ID | 30249 |
| Date fetched |
Epoch osculation |
Inc. [°] |
Ecc. | RA asc node [hr] |
Arg Peri. [°] |
Mean anom [°] |
Mean motion [rev/day] |
Abs. mag |
| Date fetched |
Epoch osculation |
Inc. [°] |
Ecc. | RA asc node [hr] |
Arg Peri. [°] |
Mean anom [°] |
Mean motion [rev/day] |
Abs. mag |
| 2026 May 05 17:57 | 2026 May 05 10:38:02 | 98.9657 | 0.00229 | 20.4348 | 327.4053 | 90.3010 | 14.62977 | – |
| 2026 May 04 17:57 | 2026 Apr 30 10:40:36 | 98.9640 | 0.00230 | 20.0731 | 343.1845 | 90.3010 | 14.62977 | – |
| 2026 May 03 17:57 | 2026 Apr 30 10:40:36 | 98.9640 | 0.00230 | 20.0731 | 343.1845 | 90.3010 | 14.62977 | – |
| 2026 May 02 17:57 | 2026 Apr 30 10:40:36 | 98.9640 | 0.00230 | 20.0731 | 343.1845 | 90.3010 | 14.62977 | – |
| 2026 May 01 17:56 | 2026 Apr 30 10:40:36 | 98.9640 | 0.00230 | 20.0731 | 343.1845 | 90.3010 | 14.62977 | – |
| 2026 Apr 30 17:56 | 2026 Apr 30 10:40:36 | 98.9640 | 0.00230 | 20.0731 | 343.1845 | 90.3010 | 14.62977 | – |
| 2026 Apr 29 17:57 | 2026 Apr 24 11:59:37 | 98.9653 | 0.00233 | 19.6429 | 1.8852 | 90.3010 | 14.62977 | – |
| 2026 Apr 28 17:56 | 2026 Apr 24 11:59:37 | 98.9653 | 0.00233 | 19.6429 | 1.8852 | 90.3010 | 14.62977 | – |
| 2026 Apr 27 17:58 | 2026 Apr 24 11:59:37 | 98.9653 | 0.00233 | 19.6429 | 1.8852 | 90.3010 | 14.62977 | – |
| 2026 Apr 26 17:58 | 2026 Apr 24 11:59:37 | 98.9653 | 0.00233 | 19.6429 | 1.8852 | 90.3010 | 14.62977 | – |
| 2026 Apr 25 17:58 | 2026 Apr 24 11:59:37 | 98.9653 | 0.00233 | 19.6429 | 1.8852 | 90.3010 | 14.62977 | – |
| 2026 Apr 24 17:59 | 2026 Apr 24 11:59:37 | 98.9653 | 0.00233 | 19.6429 | 1.8852 | 90.3010 | 14.62977 | – |
| 2026 Apr 23 17:57 | 2026 Apr 18 23:25:06 | 98.9644 | 0.00236 | 19.2434 | 19.1310 | 90.3010 | 14.62977 | – |
| 2026 Apr 22 17:57 | 2026 Apr 18 23:25:06 | 98.9644 | 0.00236 | 19.2434 | 19.1310 | 90.3010 | 14.62977 | – |
| 2026 Apr 21 17:57 | 2026 Apr 18 23:25:06 | 98.9644 | 0.00236 | 19.2434 | 19.1310 | 90.3010 | 14.62977 | – |
| 2026 Apr 20 17:57 | 2026 Apr 18 23:25:06 | 98.9644 | 0.00236 | 19.2434 | 19.1310 | 90.3010 | 14.62977 | – |
| 2026 Apr 19 17:58 | 2026 Apr 18 23:25:06 | 98.9644 | 0.00236 | 19.2434 | 19.1310 | 90.3010 | 14.62977 | – |
| 2026 Apr 18 17:56 | 2026 Apr 12 10:58:47 | 98.9648 | 0.00239 | 18.7719 | 39.0810 | 90.3010 | 14.62977 | – |
| 2026 Apr 16 17:57 | 2026 Apr 12 10:58:47 | 98.9648 | 0.00239 | 18.7719 | 39.0810 | 90.3010 | 14.62977 | – |
| 2026 Apr 14 17:57 | 2026 Apr 12 10:58:47 | 98.9648 | 0.00239 | 18.7719 | 39.0810 | 90.3010 | 14.62977 | – |
| 2026 Apr 13 17:57 | 2026 Apr 12 10:58:47 | 98.9648 | 0.00239 | 18.7719 | 39.0810 | 90.3010 | 14.62977 | – |
| 2026 Apr 12 17:57 | 2026 Apr 08 11:46:45 | 98.9650 | 0.00240 | 18.4850 | 51.3485 | 90.3010 | 14.62977 | – |
| 2026 Apr 11 17:57 | 2026 Apr 08 11:46:45 | 98.9650 | 0.00240 | 18.4850 | 51.3485 | 90.3010 | 14.62977 | – |
| 2026 Apr 10 17:58 | 2026 Apr 08 11:46:45 | 98.9650 | 0.00240 | 18.4850 | 51.3485 | 90.3010 | 14.62977 | – |
| 2026 Apr 09 18:01 | 2026 Apr 08 11:46:45 | 98.9650 | 0.00240 | 18.4850 | 51.3485 | 90.3010 | 14.62977 | – |
| 2026 Apr 08 17:57 | 2026 Apr 08 11:46:45 | 98.9650 | 0.00240 | 18.4850 | 51.3485 | 90.3010 | 14.62977 | – |